JAL305 RJTT-RJFF
Flight info
| Callsign | JAL305 |
|---|---|
| Flight time | N/A |
| Altitude | 40000 |
| Route | GUSRO Y20 KIRIN |
| Aircraft | A359/H-SDE2E3GHIJ3J4J5LM1ORWXY/LB1D1 |
Departure
| Time | N/A |
|---|---|
| Airport | Tokyo Haneda International Airport (RJTT) |
Arrival
| Time | 2026-05-07 14:19 |
|---|---|
| Airport | Fukuoka Airport (RJFF) |
| Time | Latitude | Longitude | Altitude | Speed | Heading |
|---|---|---|---|---|---|
| 2026-05-07 12:57 | 35.42283 | 136.84813 | 39944 ft | 442 kts | 253° |
| 2026-05-07 12:57 | 35.41468 | 136.81187 | 39941 ft | 442 kts | 253° |
| 2026-05-07 12:58 | 35.39830 | 136.73910 | 39938 ft | 442 kts | 253° |
| 2026-05-07 12:58 | 35.38200 | 136.66690 | 39939 ft | 442 kts | 252° |
| 2026-05-07 12:59 | 35.36553 | 136.59420 | 39941 ft | 442 kts | 252° |
| 2026-05-07 12:59 | 35.34906 | 136.52172 | 39938 ft | 441 kts | 252° |
| 2026-05-07 13:00 | 35.33259 | 136.44945 | 39941 ft | 440 kts | 252° |
| 2026-05-07 13:00 | 35.31612 | 136.37721 | 39941 ft | 440 kts | 253° |
| 2026-05-07 13:01 | 35.29959 | 136.30506 | 39939 ft | 440 kts | 253° |
| 2026-05-07 13:01 | 35.28298 | 136.23288 | 39935 ft | 441 kts | 252° |
| 2026-05-07 13:02 | 35.26635 | 136.16077 | 39933 ft | 439 kts | 253° |
| 2026-05-07 13:02 | 35.24983 | 136.08934 | 39936 ft | 438 kts | 252° |
| 2026-05-07 13:03 | 35.23320 | 136.01760 | 39936 ft | 438 kts | 252° |
| 2026-05-07 13:03 | 35.21652 | 135.94590 | 39933 ft | 438 kts | 253° |
| 2026-05-07 13:04 | 35.19986 | 135.87445 | 39936 ft | 437 kts | 253° |
| 2026-05-07 13:04 | 35.18315 | 135.80302 | 39936 ft | 436 kts | 252° |
| 2026-05-07 13:05 | 35.16873 | 135.73082 | 39935 ft | 437 kts | 257° |
| 2026-05-07 13:05 | 35.15751 | 135.65820 | 39935 ft | 437 kts | 257° |
| 2026-05-07 13:06 | 35.14604 | 135.58513 | 39936 ft | 437 kts | 257° |
| 2026-05-07 13:06 | 35.13397 | 135.51240 | 39939 ft | 437 kts | 257° |
| 2026-05-07 13:07 | 35.12160 | 135.43968 | 39935 ft | 437 kts | 257° |
| 2026-05-07 13:07 | 35.10915 | 135.36703 | 39933 ft | 437 kts | 257° |
| 2026-05-07 13:08 | 35.09670 | 135.29447 | 39936 ft | 436 kts | 257° |
| 2026-05-07 13:08 | 35.08426 | 135.22234 | 39936 ft | 436 kts | 257° |
| 2026-05-07 13:09 | 35.07176 | 135.14989 | 39933 ft | 436 kts | 257° |
| 2026-05-07 13:09 | 35.05921 | 135.07744 | 39933 ft | 436 kts | 257° |
| 2026-05-07 13:10 | 35.04663 | 135.00503 | 39941 ft | 437 kts | 257° |
| 2026-05-07 13:10 | 35.03400 | 134.93262 | 39938 ft | 434 kts | 257° |
| 2026-05-07 13:11 | 35.02141 | 134.86061 | 39936 ft | 434 kts | 257° |
| 2026-05-07 13:11 | 35.00881 | 134.78916 | 39935 ft | 434 kts | 257° |
| 2026-05-07 13:12 | 34.99605 | 134.71711 | 39930 ft | 435 kts | 257° |
| 2026-05-07 13:12 | 34.98304 | 134.64507 | 39938 ft | 435 kts | 256° |
| 2026-05-07 13:13 | 34.97601 | 134.60921 | 39956 ft | 435 kts | 256° |
| 2026-05-07 13:13 | 34.96196 | 134.53961 | 39940 ft | 433 kts | 256° |
| 2026-05-07 13:14 | 34.94761 | 134.46826 | 39939 ft | 433 kts | 256° |
| 2026-05-07 13:14 | 34.93336 | 134.39680 | 39946 ft | 434 kts | 256° |
| 2026-05-07 13:15 | 34.91917 | 134.32542 | 39938 ft | 433 kts | 256° |
| 2026-05-07 13:15 | 34.90501 | 134.25450 | 39936 ft | 433 kts | 256° |
| 2026-05-07 13:16 | 34.89073 | 134.18329 | 39931 ft | 433 kts | 256° |
| 2026-05-07 13:16 | 34.87638 | 134.11192 | 39933 ft | 433 kts | 256° |
| 2026-05-07 13:17 | 34.86200 | 134.04065 | 39934 ft | 433 kts | 256° |
| 2026-05-07 13:17 | 34.84767 | 133.96990 | 39935 ft | 433 kts | 256° |
| 2026-05-07 13:18 | 34.83321 | 133.89873 | 39932 ft | 433 kts | 256° |
| 2026-05-07 13:18 | 34.81865 | 133.82750 | 39952 ft | 433 kts | 256° |
| 2026-05-07 13:19 | 34.80370 | 133.75641 | 39934 ft | 434 kts | 256° |
| 2026-05-07 13:19 | 34.78861 | 133.68530 | 39937 ft | 434 kts | 255° |
| 2026-05-07 13:20 | 34.77351 | 133.61415 | 39931 ft | 434 kts | 256° |
| 2026-05-07 13:20 | 34.75837 | 133.54292 | 39931 ft | 435 kts | 256° |
| 2026-05-07 13:21 | 34.74322 | 133.47180 | 39925 ft | 434 kts | 256° |
| 2026-05-07 13:21 | 34.72804 | 133.40072 | 39933 ft | 434 kts | 256° |
| 2026-05-07 13:22 | 34.71536 | 133.34156 | 39927 ft | 434 kts | 256° |
| 2026-05-07 13:22 | 34.69759 | 133.25888 | 39927 ft | 435 kts | 256° |
| 2026-05-07 13:23 | 34.68476 | 133.19935 | 39931 ft | 434 kts | 256° |
| 2026-05-07 13:23 | 34.66952 | 133.12893 | 39929 ft | 433 kts | 256° |
| 2026-05-07 13:24 | 34.65417 | 133.05812 | 39920 ft | 433 kts | 256° |
| 2026-05-07 13:24 | 34.63876 | 132.98728 | 39930 ft | 433 kts | 256° |
| 2026-05-07 13:25 | 34.62335 | 132.91663 | 39927 ft | 432 kts | 256° |
| 2026-05-07 13:25 | 34.60790 | 132.84609 | 39925 ft | 432 kts | 256° |
| 2026-05-07 13:26 | 34.59243 | 132.77560 | 39925 ft | 432 kts | 256° |
| 2026-05-07 13:26 | 34.57692 | 132.70519 | 39917 ft | 432 kts | 256° |
| 2026-05-07 13:27 | 34.56139 | 132.63485 | 39926 ft | 432 kts | 256° |
| 2026-05-07 13:27 | 34.54582 | 132.56449 | 39926 ft | 430 kts | 255° |
| 2026-05-07 13:28 | 34.53024 | 132.49442 | 39908 ft | 430 kts | 256° |
| 2026-05-07 13:28 | 34.51471 | 132.42473 | 39931 ft | 431 kts | 255° |
| 2026-05-07 13:29 | 34.49906 | 132.35460 | 39928 ft | 430 kts | 255° |
| 2026-05-07 13:29 | 34.49121 | 132.31968 | 39755 ft | 428 kts | 255° |
| 2026-05-07 13:29 | 34.48339 | 132.28508 | 39225 ft | 425 kts | 255° |
| 2026-05-07 13:30 | 34.47559 | 132.25041 | 38768 ft | 427 kts | 255° |
| 2026-05-07 13:30 | 34.46775 | 132.21554 | 38258 ft | 430 kts | 256° |
| 2026-05-07 13:30 | 34.45985 | 132.18040 | 37724 ft | 432 kts | 255° |
| 2026-05-07 13:30 | 34.45193 | 132.14522 | 37197 ft | 434 kts | 255° |
| 2026-05-07 13:31 | 34.44393 | 132.10981 | 36679 ft | 438 kts | 255° |
| 2026-05-07 13:31 | 34.43579 | 132.07379 | 36148 ft | 448 kts | 255° |
| 2026-05-07 13:31 | 34.42749 | 132.03719 | 35714 ft | 452 kts | 255° |
| 2026-05-07 13:31 | 34.41922 | 132.00086 | 35239 ft | 455 kts | 255° |
| 2026-05-07 13:32 | 34.41079 | 131.96385 | 34638 ft | 457 kts | 255° |
| 2026-05-07 13:32 | 34.40231 | 131.92673 | 33925 ft | 457 kts | 255° |
| 2026-05-07 13:32 | 34.39382 | 131.88960 | 33056 ft | 456 kts | 255° |
| 2026-05-07 13:32 | 34.38542 | 131.85277 | 32279 ft | 453 kts | 255° |
| 2026-05-07 13:33 | 34.37705 | 131.81611 | 31560 ft | 450 kts | 254° |
| 2026-05-07 13:33 | 34.36869 | 131.77959 | 30839 ft | 449 kts | 254° |
| 2026-05-07 13:33 | 34.36036 | 131.74326 | 30154 ft | 447 kts | 254° |
| 2026-05-07 13:33 | 34.35214 | 131.70751 | 29373 ft | 445 kts | 254° |
| 2026-05-07 13:34 | 34.34399 | 131.67211 | 28581 ft | 432 kts | 254° |
| 2026-05-07 13:34 | 34.32810 | 131.60339 | 27018 ft | 418 kts | 254° |
| 2026-05-07 13:34 | 34.32031 | 131.56976 | 26299 ft | 414 kts | 254° |
| 2026-05-07 13:35 | 34.31261 | 131.53645 | 25595 ft | 408 kts | 254° |
| 2026-05-07 13:35 | 34.30501 | 131.50355 | 24907 ft | 403 kts | 253° |
| 2026-05-07 13:35 | 34.29749 | 131.47125 | 24227 ft | 397 kts | 253° |
| 2026-05-07 13:35 | 34.29005 | 131.43928 | 23566 ft | 392 kts | 253° |
| 2026-05-07 13:36 | 34.28269 | 131.40775 | 22782 ft | 387 kts | 253° |
| 2026-05-07 13:36 | 34.27542 | 131.37652 | 22007 ft | 383 kts | 253° |
| 2026-05-07 13:36 | 34.26821 | 131.34560 | 21282 ft | 378 kts | 253° |
| 2026-05-07 13:36 | 34.26111 | 131.31524 | 20547 ft | 374 kts | 253° |
| 2026-05-07 13:37 | 34.25403 | 131.28507 | 19830 ft | 370 kts | 253° |
| 2026-05-07 13:37 | 34.24706 | 131.25535 | 19132 ft | 366 kts | 252° |
| 2026-05-07 13:37 | 34.24024 | 131.22627 | 18501 ft | 362 kts | 252° |
| 2026-05-07 13:37 | 34.23337 | 131.19697 | 18072 ft | 360 kts | 252° |
| 2026-05-07 13:38 | 34.22653 | 131.16784 | 17942 ft | 360 kts | 252° |
| 2026-05-07 13:38 | 34.21970 | 131.13886 | 17920 ft | 355 kts | 252° |
| 2026-05-07 13:38 | 34.21301 | 131.11053 | 17927 ft | 349 kts | 252° |
| 2026-05-07 13:38 | 34.20634 | 131.08228 | 17925 ft | 350 kts | 252° |
| 2026-05-07 13:39 | 34.19967 | 131.05408 | 17926 ft | 350 kts | 252° |
| 2026-05-07 13:39 | 34.19270 | 131.02602 | 17925 ft | 349 kts | 250° |
| 2026-05-07 13:39 | 34.18387 | 130.99882 | 17854 ft | 345 kts | 246° |
| 2026-05-07 13:39 | 34.17369 | 130.97279 | 17528 ft | 345 kts | 242° |
| 2026-05-07 13:40 | 34.16241 | 130.94689 | 17149 ft | 347 kts | 242° |
| 2026-05-07 13:40 | 34.15104 | 130.92120 | 16767 ft | 347 kts | 242° |
| 2026-05-07 13:40 | 34.13976 | 130.89596 | 16410 ft | 346 kts | 242° |
| 2026-05-07 13:40 | 34.12832 | 130.87055 | 16036 ft | 343 kts | 242° |
| 2026-05-07 13:41 | 34.11693 | 130.84539 | 15651 ft | 332 kts | 242° |
| 2026-05-07 13:41 | 34.10623 | 130.82166 | 15292 ft | 312 kts | 242° |
| 2026-05-07 13:41 | 34.09565 | 130.79823 | 14947 ft | 330 kts | 242° |
| 2026-05-07 13:41 | 34.08482 | 130.77426 | 14597 ft | 316 kts | 242° |
| 2026-05-07 13:42 | 34.07457 | 130.75172 | 14225 ft | 297 kts | 242° |
| 2026-05-07 13:42 | 34.06483 | 130.73048 | 13877 ft | 283 kts | 242° |
| 2026-05-07 13:42 | 34.05529 | 130.70981 | 13511 ft | 280 kts | 242° |
| 2026-05-07 13:42 | 34.04602 | 130.68978 | 13118 ft | 276 kts | 242° |
| 2026-05-07 13:43 | 34.03665 | 130.66956 | 12739 ft | 275 kts | 242° |
| 2026-05-07 13:43 | 34.02730 | 130.64943 | 12370 ft | 274 kts | 242° |
| 2026-05-07 13:43 | 34.01800 | 130.62945 | 11998 ft | 273 kts | 242° |
| 2026-05-07 13:43 | 34.00871 | 130.60953 | 11620 ft | 272 kts | 242° |
| 2026-05-07 13:44 | 33.99944 | 130.58969 | 11261 ft | 271 kts | 242° |
| 2026-05-07 13:44 | 33.99016 | 130.56987 | 10892 ft | 270 kts | 242° |
| 2026-05-07 13:44 | 33.98092 | 130.55020 | 10526 ft | 269 kts | 242° |
| 2026-05-07 13:44 | 33.97168 | 130.53059 | 10172 ft | 268 kts | 242° |
| 2026-05-07 13:45 | 33.96244 | 130.51098 | 9827 ft | 268 kts | 242° |
| 2026-05-07 13:45 | 33.95339 | 130.49174 | 9450 ft | 267 kts | 242° |
| 2026-05-07 13:45 | 33.94430 | 130.47228 | 9073 ft | 266 kts | 242° |
| 2026-05-07 13:45 | 33.93524 | 130.45288 | 8692 ft | 265 kts | 242° |
| 2026-05-07 13:46 | 33.92624 | 130.43350 | 8315 ft | 264 kts | 242° |
| 2026-05-07 13:46 | 33.91732 | 130.41417 | 8030 ft | 263 kts | 242° |
| 2026-05-07 13:46 | 33.90847 | 130.39488 | 7976 ft | 264 kts | 242° |
| 2026-05-07 13:46 | 33.89962 | 130.37555 | 7852 ft | 264 kts | 242° |
| 2026-05-07 13:47 | 33.89081 | 130.35624 | 7536 ft | 262 kts | 242° |
| 2026-05-07 13:47 | 33.88209 | 130.33702 | 7173 ft | 262 kts | 242° |
| 2026-05-07 13:47 | 33.87342 | 130.31774 | 6820 ft | 261 kts | 242° |
| 2026-05-07 13:47 | 33.86331 | 130.29964 | 6443 ft | 262 kts | 225° |
| 2026-05-07 13:48 | 33.84886 | 130.28649 | 6090 ft | 261 kts | 213° |
| 2026-05-07 13:48 | 33.83353 | 130.27524 | 5715 ft | 260 kts | 212° |
| 2026-05-07 13:48 | 33.81801 | 130.26410 | 5335 ft | 258 kts | 212° |
| 2026-05-07 13:48 | 33.80266 | 130.25303 | 4973 ft | 256 kts | 212° |
| 2026-05-07 13:49 | 33.78740 | 130.24209 | 4584 ft | 254 kts | 212° |
| 2026-05-07 13:49 | 33.77227 | 130.23129 | 4215 ft | 252 kts | 212° |
| 2026-05-07 13:49 | 33.75724 | 130.22059 | 3842 ft | 250 kts | 212° |
| 2026-05-07 13:49 | 33.74235 | 130.21004 | 3470 ft | 248 kts | 212° |
| 2026-05-07 13:50 | 33.72753 | 130.19961 | 3122 ft | 246 kts | 212° |
| 2026-05-07 13:50 | 33.71274 | 130.18927 | 2987 ft | 245 kts | 212° |
| 2026-05-07 13:50 | 33.69791 | 130.17911 | 2974 ft | 246 kts | 210° |
| 2026-05-07 13:50 | 33.68130 | 130.17396 | 2980 ft | 251 kts | 183° |
| 2026-05-07 13:51 | 33.66449 | 130.17910 | 2978 ft | 259 kts | 155° |
| 2026-05-07 13:51 | 33.65097 | 130.19404 | 2978 ft | 268 kts | 127° |
| 2026-05-07 13:51 | 33.64458 | 130.21490 | 2979 ft | 276 kts | 101° |
| 2026-05-07 13:51 | 33.64343 | 130.23804 | 2975 ft | 278 kts | 93° |
| 2026-05-07 13:52 | 33.64340 | 130.26129 | 2969 ft | 278 kts | 92° |
| 2026-05-07 13:52 | 33.64345 | 130.28439 | 2972 ft | 275 kts | 92° |
| 2026-05-07 13:52 | 33.64349 | 130.30730 | 2973 ft | 274 kts | 92° |
| 2026-05-07 13:52 | 33.64352 | 130.33015 | 3004 ft | 274 kts | 92° |
| 2026-05-07 13:53 | 33.64270 | 130.35271 | 2717 ft | 268 kts | 103° |
| 2026-05-07 13:53 | 33.63525 | 130.37271 | 2253 ft | 262 kts | 131° |
| 2026-05-07 13:53 | 33.62172 | 130.38697 | 2043 ft | 259 kts | 148° |
| 2026-05-07 13:53 | 33.60645 | 130.39840 | 2002 ft | 259 kts | 152° |
| 2026-05-07 13:54 | 33.59028 | 130.40762 | 2007 ft | 257 kts | 161° |
| 2026-05-07 13:54 | 33.57389 | 130.41519 | 1996 ft | 241 kts | 162° |
| 2026-05-07 13:54 | 33.55917 | 130.42185 | 2013 ft | 209 kts | 162° |
| 2026-05-07 13:54 | 33.54766 | 130.42977 | 2093 ft | 177 kts | 140° |
| 2026-05-07 13:55 | 33.54210 | 130.44184 | 2074 ft | 161 kts | 101° |
| 2026-05-07 13:55 | 33.54333 | 130.45509 | 1711 ft | 167 kts | 71° |
| 2026-05-07 13:55 | 33.54968 | 130.46656 | 1298 ft | 170 kts | 42° |
| 2026-05-07 13:55 | 33.56005 | 130.46926 | 1078 ft | 152 kts | 333° |
| 2026-05-07 13:56 | 33.56884 | 130.46173 | 492 ft | 163 kts | 326° |
| 2026-05-07 13:56 | 33.57898 | 130.45558 | 104 ft | 160 kts | 328° |
| 2026-05-07 13:56 | 33.58799 | 130.44914 | 98 ft | 139 kts | 329° |
| 2026-05-07 13:56 | 33.59653 | 130.44357 | 342 ft | 146 kts | 332° |
| 2026-05-07 13:57 | 33.60560 | 130.43793 | 827 ft | 145 kts | 332° |
| 2026-05-07 13:57 | 33.61460 | 130.43238 | 1289 ft | 146 kts | 328° |
| 2026-05-07 13:57 | 33.62350 | 130.42613 | 1681 ft | 150 kts | 326° |
| 2026-05-07 13:57 | 33.63316 | 130.41932 | 1849 ft | 175 kts | 326° |
| 2026-05-07 13:58 | 33.64514 | 130.41321 | 2012 ft | 206 kts | 345° |
| 2026-05-07 13:58 | 33.66016 | 130.41047 | 2270 ft | 230 kts | 349° |
| 2026-05-07 13:58 | 33.67682 | 130.40806 | 2609 ft | 254 kts | 350° |
| 2026-05-07 13:58 | 33.69508 | 130.40573 | 3117 ft | 267 kts | 352° |
| 2026-05-07 13:59 | 33.71377 | 130.40364 | 3702 ft | 272 kts | 352° |
| 2026-05-07 13:59 | 33.73270 | 130.40156 | 3956 ft | 274 kts | 352° |
| 2026-05-07 13:59 | 33.75176 | 130.39947 | 3976 ft | 276 kts | 352° |
| 2026-05-07 13:59 | 33.77091 | 130.39737 | 3972 ft | 277 kts | 352° |
| 2026-05-07 14:00 | 33.78990 | 130.39529 | 3974 ft | 277 kts | 352° |
| 2026-05-07 14:00 | 33.80941 | 130.39318 | 3974 ft | 277 kts | 352° |
| 2026-05-07 14:00 | 33.82833 | 130.39110 | 3973 ft | 277 kts | 352° |
| 2026-05-07 14:00 | 33.84758 | 130.38910 | 3985 ft | 278 kts | 352° |
| 2026-05-07 14:01 | 33.86696 | 130.38722 | 3967 ft | 279 kts | 352° |
| 2026-05-07 14:01 | 33.88629 | 130.38536 | 3976 ft | 278 kts | 352° |
| 2026-05-07 14:01 | 33.90560 | 130.38354 | 3970 ft | 278 kts | 352° |
| 2026-05-07 14:01 | 33.92495 | 130.38172 | 3977 ft | 279 kts | 352° |
| 2026-05-07 14:02 | 33.94432 | 130.37988 | 3970 ft | 278 kts | 352° |
| 2026-05-07 14:02 | 33.96368 | 130.37802 | 3975 ft | 279 kts | 352° |
| 2026-05-07 14:02 | 33.98300 | 130.37613 | 3984 ft | 279 kts | 352° |
| 2026-05-07 14:02 | 34.00236 | 130.37424 | 3984 ft | 279 kts | 352° |
| 2026-05-07 14:03 | 34.02170 | 130.37236 | 3979 ft | 278 kts | 352° |
| 2026-05-07 14:03 | 34.04099 | 130.37052 | 3984 ft | 279 kts | 352° |
| 2026-05-07 14:03 | 34.06033 | 130.36869 | 3970 ft | 279 kts | 352° |
| 2026-05-07 14:03 | 34.07949 | 130.36690 | 3975 ft | 279 kts | 352° |
| 2026-05-07 14:04 | 34.09868 | 130.36393 | 3972 ft | 276 kts | 342° |
| 2026-05-07 14:04 | 34.11531 | 130.35352 | 3983 ft | 266 kts | 314° |
| 2026-05-07 14:04 | 34.12557 | 130.33581 | 3980 ft | 254 kts | 286° |
| 2026-05-07 14:04 | 34.12796 | 130.31505 | 3980 ft | 248 kts | 265° |
| 2026-05-07 14:05 | 34.12682 | 130.29421 | 3972 ft | 249 kts | 262° |
| 2026-05-07 14:05 | 34.12521 | 130.27339 | 3981 ft | 250 kts | 262° |
| 2026-05-07 14:05 | 34.12357 | 130.25281 | 3973 ft | 249 kts | 262° |
| 2026-05-07 14:05 | 34.12182 | 130.23203 | 3973 ft | 249 kts | 262° |
| 2026-05-07 14:06 | 34.12006 | 130.21127 | 3976 ft | 249 kts | 262° |
| 2026-05-07 14:06 | 34.11823 | 130.19055 | 3980 ft | 248 kts | 260° |
| 2026-05-07 14:06 | 34.11299 | 130.17087 | 3972 ft | 247 kts | 237° |
| 2026-05-07 14:06 | 34.10069 | 130.15668 | 3987 ft | 248 kts | 210° |
| 2026-05-07 14:07 | 34.08392 | 130.15161 | 3976 ft | 253 kts | 182° |
| 2026-05-07 14:07 | 34.06632 | 130.15410 | 3976 ft | 256 kts | 173° |
| 2026-05-07 14:07 | 34.04901 | 130.15824 | 3973 ft | 257 kts | 172° |
| 2026-05-07 14:07 | 34.03127 | 130.16267 | 3979 ft | 257 kts | 172° |
| 2026-05-07 14:08 | 34.01438 | 130.16703 | 3982 ft | 243 kts | 172° |
| 2026-05-07 14:08 | 33.99812 | 130.17135 | 3987 ft | 236 kts | 172° |
| 2026-05-07 14:08 | 33.98209 | 130.17561 | 3982 ft | 236 kts | 172° |
| 2026-05-07 14:08 | 33.96602 | 130.17986 | 3984 ft | 236 kts | 172° |
| 2026-05-07 14:09 | 33.94998 | 130.18412 | 3977 ft | 237 kts | 172° |
| 2026-05-07 14:09 | 33.93386 | 130.18845 | 3975 ft | 237 kts | 172° |
| 2026-05-07 14:09 | 33.91781 | 130.19277 | 3979 ft | 236 kts | 172° |
| 2026-05-07 14:09 | 33.90193 | 130.19697 | 3969 ft | 236 kts | 172° |
| 2026-05-07 14:10 | 33.88583 | 130.20116 | 3979 ft | 236 kts | 172° |
| 2026-05-07 14:10 | 33.87499 | 130.20396 | 3979 ft | 236 kts | 172° |
| 2026-05-07 14:10 | 33.85363 | 130.20951 | 3990 ft | 237 kts | 172° |
| 2026-05-07 14:10 | 33.84278 | 130.21232 | 3976 ft | 237 kts | 172° |
| 2026-05-07 14:11 | 33.82687 | 130.21645 | 3974 ft | 237 kts | 172° |
| 2026-05-07 14:11 | 33.81054 | 130.22068 | 3977 ft | 237 kts | 172° |
| 2026-05-07 14:11 | 33.79441 | 130.22484 | 3978 ft | 237 kts | 172° |
| 2026-05-07 14:11 | 33.77842 | 130.22895 | 3778 ft | 237 kts | 172° |
| 2026-05-07 14:12 | 33.76232 | 130.23311 | 3459 ft | 235 kts | 172° |
| 2026-05-07 14:12 | 33.74635 | 130.23727 | 3145 ft | 234 kts | 172° |
| 2026-05-07 14:12 | 33.73050 | 130.24148 | 2818 ft | 233 kts | 172° |
| 2026-05-07 14:12 | 33.71473 | 130.24571 | 2490 ft | 233 kts | 172° |
| 2026-05-07 14:13 | 33.69897 | 130.24990 | 2223 ft | 231 kts | 172° |
| 2026-05-07 14:13 | 33.68314 | 130.25404 | 2189 ft | 233 kts | 173° |
| 2026-05-07 14:13 | 33.66759 | 130.25930 | 2178 ft | 235 kts | 158° |
| 2026-05-07 14:13 | 33.65506 | 130.27173 | 2189 ft | 241 kts | 130° |
| 2026-05-07 14:14 | 33.64591 | 130.28867 | 2077 ft | 239 kts | 123° |
| 2026-05-07 14:14 | 33.63762 | 130.30605 | 1983 ft | 241 kts | 122° |
| 2026-05-07 14:14 | 33.62934 | 130.32363 | 1977 ft | 244 kts | 122° |
| 2026-05-07 14:14 | 33.62097 | 130.34139 | 1977 ft | 244 kts | 122° |
| 2026-05-07 14:15 | 33.61260 | 130.35912 | 1977 ft | 244 kts | 122° |
| 2026-05-07 14:15 | 33.60187 | 130.37481 | 1980 ft | 242 kts | 143° |
| 2026-05-07 14:15 | 33.58873 | 130.38601 | 1983 ft | 224 kts | 152° |
| 2026-05-07 14:15 | 33.57596 | 130.39514 | 1982 ft | 207 kts | 153° |
| 2026-05-07 14:16 | 33.56398 | 130.40360 | 1991 ft | 189 kts | 153° |
| 2026-05-07 14:16 | 33.55322 | 130.41134 | 1991 ft | 171 kts | 153° |
| 2026-05-07 14:16 | 33.54394 | 130.41825 | 2012 ft | 153 kts | 152° |
| 2026-05-07 14:16 | 33.53519 | 130.42579 | 1951 ft | 155 kts | 141° |
| 2026-05-07 14:17 | 33.53022 | 130.43697 | 1868 ft | 161 kts | 102° |
| 2026-05-07 14:17 | 33.53177 | 130.45019 | 1839 ft | 160 kts | 69° |
| 2026-05-07 14:17 | 33.53760 | 130.46171 | 1489 ft | 163 kts | 53° |
| 2026-05-07 14:17 | 33.54645 | 130.47015 | 1090 ft | 165 kts | 25° |
| 2026-05-07 14:18 | 33.55758 | 130.47086 | 748 ft | 161 kts | 339° |
| 2026-05-07 14:18 | 33.56560 | 130.46440 | 377 ft | 165 kts | 322° |
| 2026-05-07 14:18 | 33.57527 | 130.45779 | 97 ft | 159 kts | 335° |
| 2026-05-07 14:18 | 33.58407 | 130.45195 | 42 ft | 129 kts | 330° |
| 2026-05-07 14:19 | 33.58892 | 130.44867 | 37 ft | 41 kts | 330° |
| 2026-05-07 14:19 | 33.58973 | 130.44818 | 35 ft | 5 kts | 339° |
| 2026-05-07 14:19 | 33.59073 | 130.44781 | 34 ft | 19 kts | 345° |
| 2026-05-07 14:19 | 33.59190 | 130.44769 | 31 ft | 16 kts | 2° |
| 2026-05-07 14:20 | 33.59275 | 130.44769 | 30 ft | 8 kts | 359° |
| 2026-05-07 14:20 | 33.59326 | 130.44768 | 29 ft | 9 kts | 359° |
| 2026-05-07 14:20 | 33.59391 | 130.44749 | 30 ft | 10 kts | 336° |
| 2026-05-07 14:20 | 33.59455 | 130.44707 | 32 ft | 11 kts | 331° |
| 2026-05-07 14:21 | 33.59508 | 130.44672 | 33 ft | 5 kts | 330° |
| 2026-05-07 14:21 | 33.59549 | 130.44662 | 33 ft | 7 kts | 15° |
| 2026-05-07 14:21 | 33.59571 | 130.44680 | 33 ft | 5 kts | 41° |
| 2026-05-07 14:21 | 33.59587 | 130.44704 | 32 ft | 0 kts | 53° |
| 2026-05-07 14:22 | 33.59598 | 130.44724 | 32 ft | 5 kts | 58° |
| 2026-05-07 14:22 | 33.59614 | 130.44758 | 31 ft | 1 kts | 59° |
| 2026-05-07 14:22 | 33.59619 | 130.44767 | 31 ft | 1 kts | 59° |
| 2026-05-07 14:22 | 33.59624 | 130.44778 | 31 ft | 0 kts | 61° |
| 2026-05-07 14:23 | 33.59628 | 130.44786 | 31 ft | 0 kts | 60° |